Terminal Aerodrome Forecast
Issued by NWS Sioux Falls, SD

Home | Current Version | Previous Version | Graphics & Text | Print | Product List | Glossary Off
Versions: 1 2 3 4 5 6 7 8 9 10 11 12 13 14 15 16 17 18 19 20 21 22 23 24

362
FTUS43 KFSD 251139
TAFFSD
TAF
KFSD 251139Z 2512/2612 01009KT 6SM SHRA BKN009 OVC015
     FM252100 35009KT 3SM SHRA BR OVC008
     FM260800 34007KT 5SM -SHRA OVC008
     FM261000 34007KT P6SM OVC008=

USA.gov is the U.S. government's official web portal to all federal, state and local government web resources and services.